createdAt,value
2019-02-25T00:01:24.111Z,22.07
2019-02-25T00:03:54.457Z,19.63
2019-02-25T00:06:24.755Z,18.53
2019-02-25T00:08:55.557Z,19.70
2019-02-25T00:11:25.841Z,20.17
2019-02-25T00:13:56.155Z,21.20
2019-02-25T00:16:27.421Z,21.73
2019-02-25T00:18:57.707Z,20.77
2019-02-25T00:21:29.198Z,19.27
2019-02-25T00:23:59.484Z,18.90
2019-02-25T00:26:29.830Z,18.77
2019-02-25T00:29:00.125Z,17.77
2019-02-25T00:31:30.453Z,18.03
2019-02-25T00:34:00.757Z,18.40
2019-02-25T00:36:31.102Z,18.67
2019-02-25T00:39:01.368Z,18.27
2019-02-25T00:41:33.852Z,17.60
2019-02-25T00:44:04.113Z,17.53
2019-02-25T00:46:34.373Z,15.87
2019-02-25T00:49:05.705Z,16.03
2019-02-25T00:51:35.992Z,15.57
2019-02-25T00:54:06.270Z,15.53
2019-02-25T00:56:36.537Z,15.20
2019-02-25T00:59:06.978Z,15.07
2019-02-25T01:01:37.267Z,15.13
2019-02-25T01:04:07.551Z,14.33
2019-02-25T01:06:37.833Z,14.57
2019-02-25T01:09:08.109Z,13.83
2019-02-25T01:11:38.569Z,14.77
2019-02-25T01:14:08.883Z,14.17
2019-02-25T01:16:39.159Z,13.73
2019-02-25T01:19:09.428Z,14.30
2019-02-25T01:21:39.717Z,13.70
2019-02-25T01:24:09.977Z,13.93
2019-02-25T01:26:40.301Z,14.03
2019-02-25T01:29:10.573Z,13.60
2019-02-25T01:31:40.849Z,14.03
2019-02-25T01:34:11.196Z,13.33
2019-02-25T01:36:41.479Z,12.77
2019-02-25T01:39:11.819Z,13.93
2019-02-25T01:41:42.096Z,13.17
2019-02-25T01:44:12.392Z,14.80
2019-02-25T01:46:42.664Z,14.57
2019-02-25T01:49:12.920Z,12.73
2019-02-25T01:51:43.262Z,13.50
2019-02-25T01:54:13.584Z,13.47
2019-02-25T01:56:43.865Z,13.53
2019-02-25T01:59:14.160Z,12.93
2019-02-25T02:01:44.466Z,13.00
2019-02-25T02:04:14.757Z,13.50
2019-02-25T02:06:45.103Z,12.23
2019-02-25T02:09:15.405Z,12.47
2019-02-25T02:11:45.730Z,13.53
2019-02-25T02:14:17.583Z,12.27
2019-02-25T02:16:47.859Z,12.77
2019-02-25T02:19:18.130Z,12.53
2019-02-25T02:21:48.414Z,13.30
2019-02-25T02:24:18.677Z,13.03
2019-02-25T02:26:48.985Z,13.60
2019-02-25T02:29:19.250Z,12.60
2019-02-25T02:31:49.529Z,12.47
2019-02-25T02:34:20.902Z,12.37
2019-02-25T02:36:51.174Z,13.13
2019-02-25T02:39:21.457Z,12.53
2019-02-25T02:42:16.649Z,13.90
2019-02-25T02:44:51.969Z,12.47
2019-02-25T02:47:43.132Z,12.17
2019-02-25T02:50:21.967Z,11.83
2019-02-25T02:52:52.239Z,12.43
2019-02-25T02:55:22.503Z,12.13
2019-02-25T02:57:52.824Z,12.00
2019-02-25T03:00:23.172Z,12.43
2019-02-25T03:02:53.471Z,11.53
2019-02-25T03:05:23.791Z,11.83
2019-02-25T03:07:54.055Z,11.77
2019-02-25T03:10:24.340Z,12.07
2019-02-25T03:12:54.619Z,11.20
2019-02-25T03:15:24.912Z,11.83
2019-02-25T03:17:55.183Z,11.70
2019-02-25T03:20:25.447Z,11.23
2019-02-25T03:22:55.728Z,11.87
2019-02-25T03:25:26.013Z,12.03
2019-02-25T03:27:56.304Z,10.63
2019-02-25T03:30:26.560Z,11.93
2019-02-25T03:32:56.858Z,12.07
2019-02-25T03:35:27.146Z,11.33
2019-02-25T03:37:57.398Z,11.20
2019-02-25T03:40:27.686Z,11.60
2019-02-25T03:42:58.018Z,11.37
2019-02-25T03:45:28.265Z,11.10
2019-02-25T03:47:58.537Z,11.43
2019-02-25T03:50:28.822Z,11.37
2019-02-25T03:52:59.113Z,11.33
2019-02-25T03:55:29.370Z,12.03
2019-02-25T03:57:59.629Z,12.00
2019-02-25T04:00:29.961Z,11.40
2019-02-25T04:03:00.276Z,11.50
2019-02-25T04:05:30.600Z,11.03
2019-02-25T04:08:00.903Z,11.63
2019-02-25T04:10:31.286Z,10.73
2019-02-25T04:13:01.626Z,11.47
2019-02-25T04:15:39.731Z,11.07
2019-02-25T04:18:10.008Z,11.27
2019-02-25T04:20:40.309Z,11.27
2019-02-25T04:23:10.600Z,11.90
2019-02-25T04:25:40.912Z,12.20
2019-02-25T04:28:11.173Z,11.63
2019-02-25T04:30:41.451Z,11.37
2019-02-25T04:33:11.721Z,12.30
2019-02-25T04:35:42.005Z,14.43
2019-02-25T04:38:12.318Z,14.27
2019-02-25T04:40:42.601Z,14.47
2019-02-25T04:43:12.893Z,12.67
2019-02-25T04:45:43.167Z,12.30
2019-02-25T04:48:13.460Z,12.23
2019-02-25T04:50:43.734Z,12.47
2019-02-25T04:53:14.006Z,12.00
2019-02-25T04:55:44.297Z,11.63
2019-02-25T04:58:14.577Z,11.53
2019-02-25T05:00:44.851Z,11.63
2019-02-25T05:03:15.150Z,11.40
2019-02-25T05:05:45.550Z,12.10
2019-02-25T05:08:15.900Z,11.47
2019-02-25T05:10:46.211Z,11.77
2019-02-25T05:13:16.999Z,12.20
2019-02-25T05:15:47.785Z,10.93
2019-02-25T05:18:18.283Z,11.53
2019-02-25T05:20:48.943Z,11.50
2019-02-25T05:23:19.514Z,12.03
2019-02-25T05:25:49.888Z,15.13
2019-02-25T05:28:20.247Z,18.87
2019-02-25T05:30:51.032Z,23.23
2019-02-25T05:33:21.374Z,25.13
2019-02-25T05:35:51.751Z,22.60
2019-02-25T05:38:22.173Z,23.80
2019-02-25T05:40:52.562Z,29.67
2019-02-25T05:43:23.001Z,36.27
2019-02-25T05:45:53.299Z,44.57
2019-02-25T05:48:23.652Z,41.33
2019-02-25T05:50:54.009Z,35.03
2019-02-25T05:53:24.354Z,30.57
2019-02-25T05:55:55.444Z,28.83
2019-02-25T05:58:26.026Z,25.57
2019-02-25T06:00:56.433Z,46.83
2019-02-25T06:03:27.081Z,41.43
2019-02-25T06:05:57.985Z,33.13
2019-02-25T06:08:28.269Z,29.63
2019-02-25T06:10:58.890Z,27.07
2019-02-25T06:13:29.243Z,26.97
2019-02-25T06:15:59.573Z,23.27
2019-02-25T06:18:29.854Z,20.30
2019-02-25T06:21:00.176Z,17.33
2019-02-25T06:23:30.465Z,14.83
2019-02-25T06:26:00.738Z,15.33
2019-02-25T06:28:31.062Z,14.57
2019-02-25T06:31:01.693Z,14.07
2019-02-25T06:33:32.046Z,13.40
2019-02-25T06:36:02.332Z,12.67
2019-02-25T06:38:32.649Z,13.10
2019-02-25T06:41:02.969Z,12.43
2019-02-25T06:43:33.265Z,13.50
2019-02-25T06:46:03.595Z,12.53
2019-02-25T06:48:33.998Z,13.67
2019-02-25T06:51:04.351Z,13.53
2019-02-25T06:53:34.641Z,17.17
2019-02-25T06:56:07.930Z,19.43
2019-02-25T06:58:38.211Z,23.03
2019-02-25T07:01:08.484Z,22.13
2019-02-25T07:03:38.773Z,21.67
2019-02-25T07:06:19.596Z,22.23
2019-02-25T07:09:03.769Z,20.37
2019-02-25T07:11:37.573Z,18.43
2019-02-25T07:14:09.515Z,18.87
2019-02-25T07:16:41.475Z,18.83
2019-02-25T07:19:25.265Z,18.47
2019-02-25T07:22:06.144Z,18.53
2019-02-25T07:24:38.079Z,18.23
2019-02-25T07:27:25.090Z,15.50
2019-02-25T07:29:57.029Z,15.93
2019-02-25T07:32:30.218Z,17.43
2019-02-25T07:35:09.269Z,16.70
2019-02-25T07:37:57.513Z,16.40
2019-02-25T07:40:45.697Z,17.73
2019-02-25T07:43:26.873Z,17.70
2019-02-25T07:46:13.834Z,20.13
2019-02-25T07:48:45.758Z,18.20
2019-02-25T07:51:20.424Z,17.60
2019-02-25T07:53:55.444Z,17.73
2019-02-25T07:56:27.390Z,17.50
2019-02-25T07:59:02.036Z,17.23
2019-02-25T08:01:33.947Z,19.77
2019-02-25T08:04:05.869Z,20.00
2019-02-25T08:06:37.803Z,19.07
2019-02-25T08:09:16.271Z,18.00
2019-02-25T08:11:51.037Z,21.37
2019-02-25T08:14:29.013Z,19.90
2019-02-25T08:17:00.937Z,18.73
2019-02-25T08:19:32.862Z,20.03
2019-02-25T08:22:04.829Z,19.13
2019-02-25T08:24:45.722Z,19.17
2019-02-25T08:27:20.383Z,18.40
2019-02-25T08:30:04.816Z,18.03
2019-02-25T08:32:42.748Z,19.37
2019-02-25T08:35:20.816Z,20.63
2019-02-25T08:37:53.646Z,23.03
2019-02-25T08:40:49.710Z,24.50
2019-02-25T08:43:21.694Z,23.17
2019-02-25T08:46:05.868Z,25.57
2019-02-25T08:48:43.502Z,25.17
2019-02-25T08:51:13.787Z,25.77
2019-02-25T08:53:44.077Z,27.13
2019-02-25T08:56:14.407Z,27.07
2019-02-25T08:58:44.706Z,28.47
2019-02-25T09:01:15.586Z,24.83
2019-02-25T09:04:03.936Z,26.97
2019-02-25T09:06:34.257Z,27.03
2019-02-25T09:09:05.684Z,26.17
2019-02-25T09:11:36.185Z,25.83
2019-02-25T09:14:06.486Z,26.47
2019-02-25T09:16:36.781Z,27.80
2019-02-25T09:19:07.080Z,25.77
2019-02-25T09:21:37.364Z,25.00
2019-02-25T09:24:07.666Z,29.73
2019-02-25T09:26:37.952Z,30.40
2019-02-25T09:29:08.428Z,24.47
2019-02-25T09:31:38.752Z,24.57
2019-02-25T09:34:09.162Z,26.30
2019-02-25T09:36:39.502Z,25.20
2019-02-25T09:39:12.491Z,23.07
2019-02-25T09:41:42.789Z,24.13
2019-02-25T09:44:13.059Z,25.47
2019-02-25T09:46:44.461Z,25.73
2019-02-25T09:49:14.761Z,25.03
2019-02-25T09:51:45.043Z,25.33
2019-02-25T09:54:15.320Z,24.20
2019-02-25T09:56:45.629Z,23.87
2019-02-25T09:59:15.919Z,23.73
2019-02-25T10:01:46.216Z,23.43
2019-02-25T10:04:16.484Z,25.27
2019-02-25T10:06:46.756Z,30.63
2019-02-25T10:09:17.043Z,25.57
2019-02-25T10:11:48.770Z,26.67
2019-02-25T10:14:19.107Z,23.83
2019-02-25T10:16:49.458Z,27.87
2019-02-25T10:19:19.774Z,24.43
2019-02-25T10:21:50.256Z,25.53
2019-02-25T10:24:20.530Z,24.40
2019-02-25T10:26:50.860Z,25.37
2019-02-25T10:29:21.149Z,25.13
2019-02-25T10:31:51.444Z,24.40
2019-02-25T10:34:21.745Z,25.67
2019-02-25T10:36:52.423Z,24.97
2019-02-25T10:39:22.786Z,24.33
2019-02-25T10:41:54.029Z,24.37
2019-02-25T10:44:26.076Z,23.53
2019-02-25T10:46:56.391Z,23.50
2019-02-25T10:49:28.728Z,21.90
2019-02-25T10:51:58.682Z,22.33
2019-02-25T10:54:28.959Z,22.83
2019-02-25T10:56:59.319Z,18.63
2019-02-25T10:59:31.832Z,18.60
2019-02-25T11:02:01.669Z,16.97
2019-02-25T11:04:32.088Z,17.73
2019-02-25T11:07:03.520Z,16.97
2019-02-25T11:09:36.042Z,16.57
2019-02-25T11:12:07.116Z,17.43
2019-02-25T11:14:38.958Z,17.17
2019-02-25T11:17:09.431Z,17.03
2019-02-25T11:19:39.731Z,15.87
2019-02-25T11:22:11.663Z,14.63
2019-02-25T11:24:42.038Z,16.27
2019-02-25T11:27:12.336Z,16.63
2019-02-25T11:29:44.131Z,16.93
2019-02-25T11:32:14.596Z,17.37
2019-02-25T11:34:44.905Z,22.93
2019-02-25T11:37:16.811Z,17.37
2019-02-25T11:39:47.169Z,16.27
2019-02-25T11:42:20.387Z,15.07
2019-02-25T11:44:49.447Z,14.20
2019-02-25T11:47:19.741Z,14.27
2019-02-25T11:49:51.062Z,12.83
2019-02-25T11:52:21.303Z,14.40
2019-02-25T11:54:51.608Z,12.80
2019-02-25T11:57:21.901Z,15.07
2019-02-25T11:59:52.181Z,13.03
2019-02-25T12:02:25.528Z,12.73
2019-02-25T12:04:54.576Z,12.50
2019-02-25T12:07:24.898Z,12.30
2019-02-25T12:09:55.287Z,12.07
2019-02-25T12:12:25.582Z,11.63
2019-02-25T12:14:55.856Z,14.67
2019-02-25T12:17:26.140Z,11.10
2019-02-25T12:19:56.427Z,10.27
2019-02-25T12:22:26.728Z,10.50
2019-02-25T12:24:57.016Z,11.37
2019-02-25T12:27:27.376Z,10.80
2019-02-25T12:29:57.657Z,11.23
2019-02-25T12:32:27.934Z,10.17
2019-02-25T12:34:58.221Z,9.90
2019-02-25T12:37:28.543Z,9.80
2019-02-25T12:39:59.942Z,12.10
2019-02-25T12:42:30.222Z,11.63
2019-02-25T12:45:00.518Z,10.83
2019-02-25T12:47:30.787Z,11.90
2019-02-25T12:50:01.061Z,11.30
2019-02-25T12:52:31.424Z,9.97
2019-02-25T12:55:01.696Z,11.07
2019-02-25T12:57:33.184Z,10.50
2019-02-25T13:00:04.242Z,10.00
2019-02-25T13:02:35.030Z,10.00
2019-02-25T13:05:08.468Z,10.00
2019-02-25T13:07:38.813Z,8.13
2019-02-25T13:10:11.240Z,9.07
2019-02-25T13:12:41.666Z,8.63
2019-02-25T13:15:14.338Z,12.23
2019-02-25T13:17:44.764Z,9.13
2019-02-25T13:20:15.668Z,8.80
2019-02-25T13:22:46.014Z,9.97
2019-02-25T13:25:27.534Z,9.83
2019-02-25T13:27:58.743Z,9.40
2019-02-25T13:30:30.683Z,9.40
2019-02-25T13:33:01.943Z,9.73
2019-02-25T13:35:32.229Z,8.33
2019-02-25T13:38:02.537Z,9.17
2019-02-25T13:40:33.406Z,9.40
2019-02-25T13:43:03.687Z,9.03
2019-02-25T13:45:33.983Z,9.90
2019-02-25T13:48:04.252Z,9.67
2019-02-25T13:50:34.677Z,9.90
2019-02-25T13:53:04.975Z,11.50
2019-02-25T13:55:35.267Z,9.73
2019-02-25T13:58:06.031Z,9.07
2019-02-25T14:00:37.286Z,9.53
2019-02-25T14:03:07.573Z,8.67
2019-02-25T14:05:37.891Z,9.53
2019-02-25T14:08:08.173Z,8.50
2019-02-25T14:10:38.518Z,9.30
2019-02-25T14:13:08.822Z,8.90
2019-02-25T14:15:39.466Z,9.67
2019-02-25T14:18:10.878Z,9.10
2019-02-25T14:20:41.172Z,8.27
2019-02-25T14:23:11.469Z,9.80
2019-02-25T14:25:42.006Z,7.97
2019-02-25T14:28:12.409Z,8.33
2019-02-25T14:30:42.699Z,7.90
2019-02-25T14:33:14.840Z,8.50
2019-02-25T14:35:45.240Z,8.87
2019-02-25T14:38:18.368Z,8.63
2019-02-25T14:40:49.288Z,9.93
2019-02-25T14:43:22.479Z,8.83
2019-02-25T14:45:54.423Z,9.23
2019-02-25T14:48:25.343Z,9.20
2019-02-25T14:50:56.699Z,8.07
2019-02-25T14:53:29.623Z,7.90
2019-02-25T14:56:03.950Z,8.90
2019-02-25T14:58:35.559Z,9.00
2019-02-25T15:01:06.029Z,8.47
2019-02-25T15:03:36.590Z,7.00
2019-02-25T15:06:07.387Z,7.40
2019-02-25T15:08:37.647Z,7.27
2019-02-25T15:11:09.218Z,6.53
2019-02-25T15:13:39.893Z,5.73
2019-02-25T15:16:11.702Z,5.30
2019-02-25T15:18:42.484Z,6.23
2019-02-25T15:21:15.711Z,6.50
2019-02-25T15:23:44.875Z,7.37
2019-02-25T15:26:17.095Z,6.73
2019-02-25T15:28:53.681Z,6.70
2019-02-25T15:31:22.628Z,6.53
2019-02-25T15:33:53.402Z,6.57
2019-02-25T15:36:24.739Z,7.03
2019-02-25T15:38:55.589Z,6.30
2019-02-25T15:41:26.134Z,6.50
2019-02-25T15:43:59.836Z,5.93
2019-02-25T15:46:28.847Z,6.90
2019-02-25T15:48:59.366Z,5.90
2019-02-25T15:51:30.409Z,6.60
2019-02-25T15:54:01.988Z,5.90
2019-02-25T15:56:32.778Z,6.00
2019-02-25T15:59:03.289Z,7.47
2019-02-25T16:01:34.108Z,7.33
2019-02-25T16:04:06.907Z,8.10
2019-02-25T16:06:37.676Z,8.50
2019-02-25T16:09:09.059Z,7.83
2019-02-25T16:11:43.457Z,7.77
2019-02-25T16:14:13.630Z,7.57
2019-02-25T16:16:44.474Z,8.77
2019-02-25T16:19:17.028Z,8.37
2019-02-25T16:21:47.707Z,9.50
2019-02-25T16:24:18.793Z,9.07
2019-02-25T16:26:49.979Z,8.90
2019-02-25T16:29:20.376Z,9.57
2019-02-25T16:31:53.154Z,9.07
2019-02-25T16:34:23.749Z,9.33
2019-02-25T16:36:56.021Z,8.97
2019-02-25T16:39:26.795Z,9.13
2019-02-25T16:41:57.656Z,10.67
2019-02-25T16:44:28.207Z,11.27
2019-02-25T16:46:58.729Z,12.07
2019-02-25T16:49:29.601Z,15.40
2019-02-25T16:52:02.161Z,16.57
2019-02-25T16:54:34.362Z,38.43
2019-02-25T16:57:07.201Z,29.57
2019-02-25T16:59:37.552Z,25.90
2019-02-25T17:02:11.880Z,21.33
2019-02-25T17:04:40.185Z,17.27
2019-02-25T17:07:11.848Z,15.80
2019-02-25T17:09:43.328Z,16.00
2019-02-25T17:12:13.979Z,17.80
2019-02-25T17:14:45.347Z,18.50
2019-02-25T17:17:16.250Z,20.40
2019-02-25T17:19:48.561Z,21.07
2019-02-25T17:22:19.483Z,19.27
2019-02-25T17:24:49.888Z,18.63
2019-02-25T17:27:20.764Z,17.83
2019-02-25T17:29:53.304Z,18.27
2019-02-25T17:32:25.419Z,18.47
2019-02-25T17:34:57.947Z,15.57
2019-02-25T17:37:31.592Z,18.40
2019-02-25T17:40:05.795Z,17.30
2019-02-25T17:42:34.448Z,19.67
2019-02-25T17:45:09.953Z,17.57
2019-02-25T17:47:41.894Z,17.07
2019-02-25T17:50:18.968Z,17.90
2019-02-25T17:52:49.677Z,15.57
2019-02-25T17:55:25.381Z,13.87
2019-02-25T17:57:58.772Z,13.80
2019-02-25T18:00:35.032Z,14.13
2019-02-25T18:03:05.693Z,14.27
2019-02-25T18:05:38.040Z,12.77
2019-02-25T18:08:10.563Z,14.30
2019-02-25T18:10:43.126Z,14.13
2019-02-25T18:13:13.888Z,14.63
2019-02-25T18:15:45.152Z,15.07
2019-02-25T18:18:17.772Z,15.60
2019-02-25T18:20:48.800Z,15.87
2019-02-25T18:23:21.716Z,16.07
2019-02-25T18:25:58.073Z,16.53
2019-02-25T18:28:25.402Z,15.23
2019-02-25T18:30:59.650Z,14.37
2019-02-25T18:33:29.533Z,18.27
2019-02-25T18:36:00.775Z,20.97
2019-02-25T18:38:32.840Z,20.40
2019-02-25T18:41:04.717Z,19.07
2019-02-25T18:43:36.104Z,29.87
2019-02-25T18:46:07.229Z,31.80
2019-02-25T18:48:40.851Z,29.00
2019-02-25T18:51:11.646Z,27.13
2019-02-25T18:53:44.652Z,32.30
2019-02-25T18:56:16.743Z,27.77
2019-02-25T18:58:48.993Z,26.23
2019-02-25T19:01:20.147Z,24.47
2019-02-25T19:03:52.687Z,22.30
2019-02-25T19:06:25.617Z,22.47
2019-02-25T19:08:58.306Z,21.93
2019-02-25T19:11:29.054Z,22.00
2019-02-25T19:14:03.168Z,20.80
2019-02-25T19:16:31.880Z,19.20
2019-02-25T19:19:04.007Z,21.07
2019-02-25T19:21:35.711Z,20.87
2019-02-25T19:24:07.727Z,21.13
2019-02-25T19:26:40.318Z,20.23
2019-02-25T19:29:12.534Z,20.97
2019-02-25T19:31:43.279Z,18.17
2019-02-25T19:34:16.049Z,15.57
2019-02-25T19:36:47.914Z,17.70
2019-02-25T19:39:19.783Z,19.37
2019-02-25T19:41:51.361Z,19.20
2019-02-25T19:44:23.056Z,19.23
2019-02-25T19:46:55.881Z,20.50
2019-02-25T19:49:27.686Z,20.73
2019-02-25T19:51:58.067Z,19.93
2019-02-25T19:54:29.582Z,19.37
2019-02-25T19:56:59.961Z,17.97
2019-02-25T19:59:31.040Z,17.00
2019-02-25T20:02:01.446Z,16.77
2019-02-25T20:04:35.612Z,15.47
2019-02-25T20:07:05.588Z,14.23
2019-02-25T20:09:40.303Z,14.33
2019-02-25T20:12:09.986Z,13.17
2019-02-25T20:14:42.571Z,13.40
2019-02-25T20:17:13.111Z,13.03
2019-02-25T20:19:45.535Z,14.33
2019-02-25T20:22:16.753Z,12.50
2019-02-25T20:24:48.783Z,14.37
2019-02-25T20:27:20.133Z,12.57
2019-02-25T20:29:50.807Z,12.93
2019-02-25T20:32:21.399Z,13.43
2019-02-25T20:34:55.038Z,13.30
2019-02-25T20:37:27.369Z,14.80
2019-02-25T20:39:58.087Z,13.93
2019-02-25T20:42:28.973Z,15.30
2019-02-25T20:45:02.740Z,14.30
2019-02-25T20:47:33.543Z,11.33
2019-02-25T20:50:05.511Z,12.37
2019-02-25T20:52:40.150Z,11.03
2019-02-25T20:55:11.580Z,10.53
2019-02-25T20:57:42.507Z,10.97
2019-02-25T21:00:24.180Z,10.57
2019-02-25T21:02:54.530Z,10.83
2019-02-25T21:05:27.401Z,11.07
2019-02-25T21:07:59.776Z,10.60
2019-02-25T21:10:33.464Z,9.70
2019-02-25T21:13:03.739Z,11.40
2019-02-25T21:15:36.390Z,9.73
2019-02-25T21:18:07.891Z,10.67
2019-02-25T21:20:42.825Z,11.83
2019-02-25T21:23:12.914Z,11.17
2019-02-25T21:25:44.321Z,12.47
2019-02-25T21:28:14.886Z,10.43
2019-02-25T21:30:46.038Z,10.40
2019-02-25T21:33:19.873Z,13.87
2019-02-25T21:35:50.621Z,10.10
2019-02-25T21:38:24.326Z,12.43
2019-02-25T21:40:54.946Z,11.33
2019-02-25T21:43:28.786Z,12.10
2019-02-25T21:46:01.588Z,16.17
2019-02-25T21:48:35.220Z,11.50
2019-02-25T21:51:07.810Z,11.83
2019-02-25T21:53:40.095Z,10.33
2019-02-25T21:56:11.867Z,10.10
2019-02-25T21:58:44.422Z,10.13
2019-02-25T22:01:14.144Z,11.27
2019-02-25T22:03:48.022Z,11.20
2019-02-25T22:06:19.972Z,10.50
2019-02-25T22:08:50.204Z,10.33
2019-02-25T22:11:22.119Z,11.13
2019-02-25T22:13:52.623Z,10.13
2019-02-25T22:16:23.657Z,10.33
2019-02-25T22:18:56.570Z,10.70
2019-02-25T22:21:26.849Z,10.00
2019-02-25T22:24:01.346Z,10.03
2019-02-25T22:26:31.213Z,9.50
2019-02-25T22:29:02.512Z,14.00
2019-02-25T22:31:34.922Z,10.70
2019-02-25T22:34:06.701Z,10.50
2019-02-25T22:36:39.423Z,8.87
2019-02-25T22:39:08.698Z,9.57
2019-02-25T22:41:40.186Z,9.73
2019-02-25T22:44:11.064Z,11.33
2019-02-25T22:46:43.328Z,9.67
2019-02-25T22:49:13.751Z,10.77
2019-02-25T22:51:44.067Z,10.63
2019-02-25T22:54:14.775Z,12.27
2019-02-25T22:56:46.359Z,8.77
2019-02-25T22:59:20.061Z,9.33
2019-02-25T23:01:52.051Z,9.80
2019-02-25T23:04:22.525Z,9.40
2019-02-25T23:06:53.548Z,9.70
2019-02-25T23:09:25.796Z,10.03
2019-02-25T23:11:56.264Z,10.17
2019-02-25T23:14:26.564Z,8.40
2019-02-25T23:16:56.847Z,8.80
2019-02-25T23:19:27.144Z,8.63
2019-02-25T23:21:57.465Z,8.00
2019-02-25T23:24:29.953Z,9.60
2019-02-25T23:26:59.747Z,9.30
2019-02-25T23:29:31.148Z,9.10
2019-02-25T23:32:02.502Z,9.10
2019-02-25T23:34:35.921Z,8.77
2019-02-25T23:37:08.391Z,9.40
2019-02-25T23:39:40.419Z,8.17
2019-02-25T23:42:11.442Z,9.53
2019-02-25T23:44:42.489Z,10.10
2019-02-25T23:47:12.848Z,9.00
2019-02-25T23:49:43.854Z,8.53
2019-02-25T23:52:15.174Z,9.33
2019-02-25T23:54:47.331Z,7.63
2019-02-25T23:57:19.842Z,8.33
2019-02-25T23:59:51.146Z,8.80
